createdAt,value
2017-09-01T00:01:36.282Z,13.60
2017-09-01T00:04:02.338Z,13.60
2017-09-01T00:06:28.377Z,13.60
2017-09-01T00:08:54.392Z,13.60
2017-09-01T00:11:20.457Z,13.50
2017-09-01T00:13:46.530Z,13.40
2017-09-01T00:16:12.576Z,13.40
2017-09-01T00:18:38.598Z,13.40
2017-09-01T00:21:04.649Z,13.40
2017-09-01T00:23:30.725Z,13.30
2017-09-01T00:25:56.801Z,13.40
2017-09-01T00:28:22.865Z,13.30
2017-09-01T00:30:48.898Z,13.30
2017-09-01T00:33:14.966Z,13.30
2017-09-01T00:35:40.993Z,13.30
2017-09-01T00:38:07.059Z,13.30
2017-09-01T00:40:33.104Z,13.30
2017-09-01T00:42:59.178Z,13.20
2017-09-01T00:45:25.231Z,13.30
2017-09-01T00:47:51.264Z,13.30
2017-09-01T00:50:17.309Z,13.30
2017-09-01T00:52:43.372Z,13.30
2017-09-01T00:55:09.403Z,13.40
2017-09-01T00:57:35.489Z,13.40
2017-09-01T01:00:01.532Z,13.40
2017-09-01T01:02:27.596Z,13.30
2017-09-01T01:04:53.688Z,13.20
2017-09-01T01:07:19.734Z,13.20
2017-09-01T01:09:45.774Z,13.20
2017-09-01T01:12:11.805Z,13.20
2017-09-01T01:14:37.853Z,13.20
2017-09-01T01:17:03.904Z,13.10
2017-09-01T01:19:29.970Z,13.10
2017-09-01T01:21:56.010Z,13.10
2017-09-01T01:24:22.050Z,13.00
2017-09-01T01:26:48.093Z,13.10
2017-09-01T01:29:14.141Z,13.10
2017-09-01T01:31:40.165Z,13.00
2017-09-01T01:34:06.209Z,13.00
2017-09-01T01:36:32.300Z,13.00
2017-09-01T01:38:58.349Z,13.00
2017-09-01T01:41:24.387Z,13.00
2017-09-01T01:43:50.437Z,13.10
2017-09-01T01:46:16.489Z,13.10
2017-09-01T01:48:42.528Z,13.10
2017-09-01T01:51:08.577Z,13.10
2017-09-01T01:53:34.610Z,13.10
2017-09-01T01:56:00.672Z,13.10
2017-09-01T01:58:26.701Z,13.10
2017-09-01T02:00:52.762Z,13.10
2017-09-01T02:03:18.810Z,13.10
2017-09-01T02:05:44.901Z,13.00
2017-09-01T02:08:10.947Z,13.00
2017-09-01T02:10:37.017Z,13.00
2017-09-01T02:13:03.197Z,12.90
2017-09-01T02:15:29.231Z,12.90
2017-09-01T02:17:55.284Z,12.90
2017-09-01T02:20:21.303Z,12.90
2017-09-01T02:22:47.330Z,12.90
2017-09-01T02:25:13.360Z,12.90
2017-09-01T02:27:39.418Z,12.80
2017-09-01T02:30:05.445Z,12.80
2017-09-01T02:32:31.526Z,12.80
2017-09-01T02:34:57.570Z,12.80
2017-09-01T02:37:23.645Z,12.70
2017-09-01T02:39:49.726Z,12.80
2017-09-01T02:42:15.769Z,12.80
2017-09-01T02:44:41.852Z,12.80
2017-09-01T02:47:07.933Z,12.80
2017-09-01T02:49:33.995Z,12.80
2017-09-01T02:52:00.038Z,12.80
2017-09-01T02:54:26.077Z,12.80
2017-09-01T02:56:52.115Z,12.70
2017-09-01T02:59:18.174Z,12.70
2017-09-01T03:01:44.205Z,12.60
2017-09-01T03:04:10.228Z,12.60
2017-09-01T03:06:36.314Z,12.60
2017-09-01T03:09:02.368Z,12.60
2017-09-01T03:11:28.414Z,12.60
2017-09-01T03:13:54.489Z,12.50
2017-09-01T03:16:20.553Z,12.60
2017-09-01T03:18:46.574Z,12.60
2017-09-01T03:21:12.609Z,12.50
2017-09-01T03:23:38.653Z,12.60
2017-09-01T03:26:04.678Z,12.70
2017-09-01T03:28:30.703Z,12.70
2017-09-01T03:30:56.742Z,12.60
2017-09-01T03:33:22.769Z,12.60
2017-09-01T03:35:48.781Z,12.60
2017-09-01T03:38:14.880Z,12.50
2017-09-01T03:40:40.890Z,12.50
2017-09-01T03:43:06.957Z,12.60
2017-09-01T03:45:33.014Z,12.60
2017-09-01T03:47:59.089Z,12.70
2017-09-01T03:50:25.134Z,12.60
2017-09-01T03:52:51.185Z,12.60
2017-09-01T03:55:17.228Z,12.60
2017-09-01T03:57:43.303Z,12.50
2017-09-01T04:00:09.357Z,12.50
2017-09-01T04:02:35.419Z,12.50
2017-09-01T04:05:01.470Z,12.40
2017-09-01T04:07:27.562Z,12.50
2017-09-01T04:09:53.597Z,12.60
2017-09-01T04:12:19.717Z,12.60
2017-09-01T04:14:45.793Z,12.50
2017-09-01T04:17:11.873Z,12.40
2017-09-01T04:19:37.954Z,12.40
2017-09-01T04:22:03.978Z,12.40
2017-09-01T04:24:30.056Z,12.40
2017-09-01T04:26:56.092Z,12.40
2017-09-01T04:29:22.255Z,12.30
2017-09-01T04:31:48.304Z,12.40
2017-09-01T04:34:14.346Z,12.30
2017-09-01T04:36:40.385Z,12.40
2017-09-01T04:39:06.457Z,12.40
2017-09-01T04:41:32.648Z,12.30
2017-09-01T04:43:58.814Z,12.30
2017-09-01T04:46:24.833Z,12.40
2017-09-01T04:48:50.864Z,12.40
2017-09-01T04:51:16.890Z,12.40
2017-09-01T04:53:42.920Z,12.40
2017-09-01T04:56:08.978Z,12.40
2017-09-01T04:58:35.057Z,12.40
2017-09-01T05:01:01.097Z,12.30
2017-09-01T05:03:27.133Z,12.40
2017-09-01T05:05:53.229Z,12.50
2017-09-01T05:08:19.311Z,12.50
2017-09-01T05:10:45.380Z,12.40
2017-09-01T05:13:11.462Z,12.50
2017-09-01T05:15:37.534Z,12.50
2017-09-01T05:18:04.329Z,12.50
2017-09-01T05:20:30.364Z,12.50
2017-09-01T05:22:56.412Z,12.50
2017-09-01T05:25:22.509Z,12.60
2017-09-01T05:27:48.545Z,12.60
2017-09-01T05:30:14.623Z,12.70
2017-09-01T05:32:40.685Z,12.60
2017-09-01T05:35:06.737Z,12.60
2017-09-01T05:37:32.831Z,12.60
2017-09-01T05:39:58.863Z,12.60
2017-09-01T05:42:24.900Z,12.70
2017-09-01T05:44:50.926Z,12.70
2017-09-01T05:47:16.975Z,12.80
2017-09-01T05:49:42.990Z,12.80
2017-09-01T05:52:09.022Z,12.70
2017-09-01T05:54:35.060Z,12.80
2017-09-01T05:57:01.101Z,12.90
2017-09-01T05:59:27.121Z,12.90
2017-09-01T06:01:53.142Z,12.90
2017-09-01T06:04:19.185Z,12.90
2017-09-01T06:06:45.217Z,13.00
2017-09-01T06:09:11.249Z,13.10
2017-09-01T06:11:37.312Z,13.20
2017-09-01T06:14:03.378Z,13.20
2017-09-01T06:16:29.394Z,13.20
2017-09-01T06:18:55.441Z,13.20
2017-09-01T06:21:21.473Z,13.30
2017-09-01T06:23:47.529Z,13.30
2017-09-01T06:26:13.596Z,13.40
2017-09-01T06:28:39.640Z,13.40
2017-09-01T06:31:05.746Z,13.30
2017-09-01T06:33:31.809Z,13.40
2017-09-01T06:35:57.833Z,13.50
2017-09-01T06:38:23.858Z,13.60
2017-09-01T06:40:49.905Z,13.60
2017-09-01T06:43:15.968Z,13.60
2017-09-01T06:45:42.045Z,13.60
2017-09-01T06:48:08.115Z,13.70
2017-09-01T06:50:34.153Z,13.80
2017-09-01T06:53:00.177Z,13.80
2017-09-01T06:55:26.217Z,13.90
2017-09-01T06:57:52.237Z,14.00
2017-09-01T07:00:25.105Z,14.10
2017-09-01T07:02:51.192Z,14.10
2017-09-01T07:05:17.252Z,14.20
2017-09-01T07:07:43.277Z,14.30
2017-09-01T07:10:09.370Z,14.40
2017-09-01T07:12:35.473Z,14.50
2017-09-01T07:15:01.555Z,14.50
2017-09-01T07:17:27.587Z,14.60
2017-09-01T07:19:53.648Z,14.70
2017-09-01T07:22:19.692Z,14.90
2017-09-01T07:24:45.817Z,15.00
2017-09-01T07:27:11.865Z,15.10
2017-09-01T07:29:37.890Z,15.30
2017-09-01T07:32:03.945Z,15.40
2017-09-01T07:34:29.990Z,15.50
2017-09-01T07:36:56.060Z,15.60
2017-09-01T07:39:22.129Z,15.70
2017-09-01T07:41:48.218Z,15.80
2017-09-01T07:44:21.080Z,15.90
2017-09-01T07:46:47.120Z,16.10
2017-09-01T07:49:13.204Z,16.20
2017-09-01T07:51:39.268Z,16.30
2017-09-01T07:54:05.350Z,16.30
2017-09-01T07:56:31.401Z,16.30
2017-09-01T07:58:57.426Z,16.40
2017-09-01T08:01:23.465Z,16.50
2017-09-01T08:03:49.485Z,16.70
2017-09-01T08:06:15.513Z,16.80
2017-09-01T08:08:41.596Z,16.90
2017-09-01T08:11:07.642Z,17.10
2017-09-01T08:13:33.718Z,17.20
2017-09-01T08:15:59.781Z,17.40
2017-09-01T08:18:25.834Z,17.50
2017-09-01T08:20:51.866Z,17.60
2017-09-01T08:23:17.883Z,17.70
2017-09-01T08:25:43.921Z,17.70
2017-09-01T08:28:09.993Z,17.70
2017-09-01T08:30:36.045Z,17.80
2017-09-01T08:33:02.096Z,18.00
2017-09-01T08:35:28.168Z,18.20
2017-09-01T08:37:54.173Z,18.30
2017-09-01T08:40:20.206Z,18.60
2017-09-01T08:42:46.222Z,18.80
2017-09-01T08:45:12.248Z,19.00
2017-09-01T08:47:38.289Z,19.10
2017-09-01T08:50:04.348Z,19.20
2017-09-01T08:52:30.435Z,19.30
2017-09-01T08:54:56.488Z,19.50
2017-09-01T08:57:22.538Z,19.60
2017-09-01T08:59:48.549Z,19.80
2017-09-01T09:02:14.573Z,20.00
2017-09-01T09:04:40.596Z,19.90
2017-09-01T09:07:06.670Z,19.90
2017-09-01T09:09:32.729Z,19.90
2017-09-01T09:11:58.749Z,19.90
2017-09-01T09:14:24.778Z,19.80
2017-09-01T09:16:50.814Z,19.80
2017-09-01T09:19:16.829Z,19.90
2017-09-01T09:21:42.873Z,20.20
2017-09-01T09:24:08.917Z,20.50
2017-09-01T09:26:34.953Z,21.20
2017-09-01T09:29:01.000Z,21.30
2017-09-01T09:31:27.049Z,21.80
2017-09-01T09:33:53.071Z,22.50
2017-09-01T09:36:19.096Z,23.20
2017-09-01T09:38:45.144Z,23.70
2017-09-01T09:41:11.166Z,23.70
2017-09-01T09:43:37.201Z,23.50
2017-09-01T09:46:03.228Z,23.20
2017-09-01T09:48:29.281Z,22.90
2017-09-01T09:50:55.302Z,22.80
2017-09-01T09:53:21.301Z,22.70
2017-09-01T09:55:47.309Z,22.30
2017-09-01T09:58:13.324Z,22.30
2017-09-01T10:00:39.373Z,22.60
2017-09-01T10:03:05.426Z,23.00
2017-09-01T10:05:31.471Z,23.10
2017-09-01T10:07:57.539Z,23.10
2017-09-01T10:10:23.569Z,23.30
2017-09-01T10:12:49.597Z,23.60
2017-09-01T10:15:15.639Z,23.90
2017-09-01T10:17:41.648Z,24.10
2017-09-01T10:20:07.688Z,24.20
2017-09-01T10:22:33.741Z,24.50
2017-09-01T10:24:59.784Z,24.70
2017-09-01T10:27:25.828Z,25.00
2017-09-01T10:29:51.871Z,25.60
2017-09-01T10:32:17.924Z,26.20
2017-09-01T10:34:43.976Z,26.70
2017-09-01T10:37:10.009Z,27.40
2017-09-01T10:39:36.037Z,28.10
2017-09-01T10:42:02.072Z,28.10
2017-09-01T10:44:28.102Z,27.70
2017-09-01T10:46:54.145Z,26.80
2017-09-01T10:49:21.129Z,26.20
2017-09-01T10:51:59.364Z,26.50
2017-09-01T10:54:37.657Z,27.10
2017-09-01T10:57:16.074Z,28.10
2017-09-01T10:59:42.058Z,29.00
2017-09-01T11:02:08.077Z,28.60
2017-09-01T11:04:34.133Z,28.30
2017-09-01T11:07:00.165Z,28.20
2017-09-01T11:09:26.185Z,28.30
2017-09-01T11:11:52.212Z,28.30
2017-09-01T11:14:18.244Z,28.40
2017-09-01T11:16:44.249Z,28.30
2017-09-01T11:19:16.457Z,28.20
2017-09-01T11:21:48.773Z,28.20
2017-09-01T11:24:20.908Z,28.60
2017-09-01T11:26:46.931Z,29.00
2017-09-01T11:29:12.993Z,28.60
2017-09-01T11:31:39.018Z,28.20
2017-09-01T11:34:05.065Z,27.70
2017-09-01T11:36:31.115Z,26.80
2017-09-01T11:38:57.153Z,26.40
2017-09-01T11:41:23.200Z,26.30
2017-09-01T11:43:49.214Z,26.60
2017-09-01T11:46:15.253Z,27.50
2017-09-01T11:48:41.271Z,27.60
2017-09-01T11:51:07.337Z,27.20
2017-09-01T11:53:33.397Z,26.70
2017-09-01T11:55:59.472Z,26.20
2017-09-01T11:58:25.497Z,25.80
2017-09-01T12:00:51.521Z,25.80
2017-09-01T12:03:17.570Z,26.10
2017-09-01T12:05:43.581Z,26.40
2017-09-01T12:08:09.598Z,26.70
2017-09-01T12:10:35.625Z,27.20
2017-09-01T12:13:01.693Z,27.40
2017-09-01T12:15:27.738Z,27.50
2017-09-01T12:17:53.793Z,27.90
2017-09-01T12:20:19.841Z,28.20
2017-09-01T12:22:45.877Z,28.10
2017-09-01T12:25:11.910Z,27.70
2017-09-01T12:27:37.934Z,27.20
2017-09-01T12:30:04.006Z,26.90
2017-09-01T12:32:30.026Z,26.90
2017-09-01T12:34:56.090Z,26.80
2017-09-01T12:37:22.114Z,26.70
2017-09-01T12:39:48.175Z,26.60
2017-09-01T12:42:14.237Z,26.40
2017-09-01T12:44:40.289Z,26.30
2017-09-01T12:47:06.338Z,25.90
2017-09-01T12:49:32.417Z,25.40
2017-09-01T12:51:58.492Z,25.10
2017-09-01T12:54:24.541Z,24.90
2017-09-01T12:56:50.566Z,24.70
2017-09-01T12:59:16.601Z,24.70
2017-09-01T13:01:42.630Z,24.80
2017-09-01T13:04:08.685Z,24.90
2017-09-01T13:06:34.729Z,25.10
2017-09-01T13:09:00.745Z,25.30
2017-09-01T13:11:26.785Z,25.50
2017-09-01T13:13:52.821Z,25.90
2017-09-01T13:16:18.850Z,26.00
2017-09-01T13:18:44.849Z,26.20
2017-09-01T13:21:10.861Z,26.10
2017-09-01T13:23:36.881Z,26.10
2017-09-01T13:26:02.906Z,26.30
2017-09-01T13:28:28.933Z,26.50
2017-09-01T13:30:55.001Z,26.40
2017-09-01T13:33:21.033Z,26.80
2017-09-01T13:35:47.042Z,27.20
2017-09-01T13:38:13.065Z,27.40
2017-09-01T13:40:39.081Z,27.30
2017-09-01T13:43:05.138Z,27.50
2017-09-01T13:45:31.154Z,27.10
2017-09-01T13:47:57.190Z,26.50
2017-09-01T13:50:23.229Z,26.10
2017-09-01T13:52:49.268Z,25.70
2017-09-01T13:55:15.300Z,25.30
2017-09-01T13:57:41.345Z,25.10
2017-09-01T14:00:07.399Z,25.20
2017-09-01T14:02:33.409Z,25.10
2017-09-01T14:04:59.449Z,24.80
2017-09-01T14:07:25.455Z,24.50
2017-09-01T14:09:51.484Z,24.10
2017-09-01T14:12:17.546Z,23.90
2017-09-01T14:14:43.621Z,23.60
2017-09-01T14:17:09.645Z,23.40
2017-09-01T14:19:35.689Z,23.20
2017-09-01T14:22:01.721Z,22.90
2017-09-01T14:24:27.735Z,22.90
2017-09-01T14:26:53.785Z,22.80
2017-09-01T14:29:19.853Z,23.00
2017-09-01T14:31:46.700Z,23.00
2017-09-01T14:34:12.725Z,22.90
2017-09-01T14:36:38.802Z,22.80
2017-09-01T14:39:04.869Z,22.60
2017-09-01T14:41:30.906Z,22.50
2017-09-01T14:43:56.929Z,22.50
2017-09-01T14:46:22.957Z,22.40
2017-09-01T14:48:48.998Z,22.30
2017-09-01T14:51:15.043Z,22.20
2017-09-01T14:53:41.101Z,22.20
2017-09-01T14:56:07.140Z,22.50
2017-09-01T14:58:33.184Z,22.50
2017-09-01T15:00:59.207Z,22.80
2017-09-01T15:03:25.230Z,23.20
2017-09-01T15:05:51.254Z,23.90
2017-09-01T15:08:17.276Z,24.70
2017-09-01T15:10:43.317Z,25.30
